Davidson, Canada
Current Conditions -  °F | °C
As of 2:00 AM on Friday 31 Oct 2014 (Local Time) from CYXE Reporting Station
Overcast Overcast  
Wind Chill: 19°   Ceiling: 1400
Heat Index: 32°   Visibility: 15mi
Dew Point: 27°   Wind: 22mph
Humidity: 80%   Direction: 160°SSE
Pressure: 30.23"   Gusts: 28mph
Location:  51.27°N, 105.97°W
Report Text: CYXE 310800Z 16019G24KT 15SM OVC014 M00/M03 A3023 RMK SC8 SLP266
Loading
Personal Weather Stations






























Interactive Weather Map
Tropical Storm Tracking
New forecast layout! Learn more

10-Day Weather Forecast

Advertisements
Track Severe Weather on mobile